Hakuryoumaru No.15 — JD2439 — position and weather

sailwx.info

Track history (hours):
 
Tides and Currents Weather Stations Pressure Air Temp Water Temp Dewpoint Dewpoint Depression Visibility Wind Speed Wind Dir Waves Ship Positions

Hakuryoumaru No.15

Last reported at 2017-May-23 07:05 UTC. Time now 2017-May-26 10:56 UTC.
Position N 35°00' E 139°27'.

Length 80 m; draft 5.2 m.

Type: Tanker. MMSI: 431000243.

Date/timePositionNaut miles runAvg speedWind from/ knotsBaromVisibWave heightAir tempDewpointWater temp
2017-May-23 07:05N 35°00' E 139°27'111.2
2017-May-23 06:59N 35°01' E 139°28'511.0
2017-May-23 06:30N 35°03' E 139°34'611.5
2017-May-23 06:00N 35°07' E 139°40'611.6
2017-May-23 05:30N 35°11' E 139°45'510.7
2017-May-23 05:00N 35°16' E 139°46'510.9
2017-May-23 04:30N 35°21' E 139°42'510.7
2017-May-23 04:00N 35°26' E 139°45'5 9.6
2017-May-23 03:30N 35°30' E 139°47'0 0.1
2017-May-23 00:10N 35°31' E 139°46'0 1.3
2017-May-23 00:00N 35°30' E 139°47'2 3.9
2017-May-22 23:30N 35°29' E 139°48'0 0.0
2017-May-22 23:00N 35°29' E 139°48'0 0.0
2017-May-22 22:30N 35°29' E 139°48'0 0.0
2017-May-22 21:59N 35°29' E 139°48'0 0.0
2017-May-22 21:30N 35°29' E 139°48'0 0.0
2017-May-22 21:01N 35°29' E 139°48'0 0.0
2017-May-22 20:30N 35°29' E 139°48'0 0.0
2017-May-22 19:58N 35°29' E 139°48'0 0.1
2017-May-22 19:31N 35°29' E 139°48'0 0.0
2017-May-22 19:00N 35°29' E 139°48'0 0.0
2017-May-22 18:30N 35°29' E 139°48'0 0.0
2017-May-22 18:00N 35°29' E 139°48'0 0.0
2017-May-22 17:30N 35°29' E 139°48'2 4.0
2017-May-22 17:00N 35°27' E 139°48'713.5
2017-May-22 16:30N 35°21' E 139°45'612.5
2017-May-22 16:00N 35°15' E 139°47'713.7
2017-May-22 15:30N 35°08' E 139°45'612.8
2017-May-22 15:00N 35°03' E 139°40'  
2017-May-19 18:21N 34°08' E 134°60'412.7
2017-May-19 18:00N 34°13' E 134°59'711.6
2017-May-19 17:25N 34°19' E 134°59'512.3
2017-May-19 16:58N 34°25' E 135°00'612.4
2017-May-19 16:29N 34°31' E 135°02'511.2
2017-May-19 16:01N 34°36' E 135°03'  
2017-May-16 08:56N 34°37' E 134°58'4 9.0
2017-May-16 08:30N 34°36' E 135°03'510.4
2017-May-16 08:00N 34°35' E 135°09'612.1
2017-May-16 07:29N 34°34' E 135°16'612.4
2017-May-16 06:59N 34°33' E 135°24'2 0.7
2017-May-16 04:30N 34°33' E 135°26'0 0.6
2017-May-16 04:00N 34°33' E 135°26'3 5.6
2017-May-16 03:28N 34°33' E 135°22'2 3.9
2017-May-16 03:00N 34°32' E 135°20'0 0.0
2017-May-16 01:48N 34°32' E 135°20'0 0.0
2017-May-16 01:12N 34°32' E 135°20'0 0.0
2017-May-15 23:00N 34°32' E 135°20'0 0.0
2017-May-15 21:30N 34°32' E 135°20'0 0.0
2017-May-15 20:48N 34°32' E 135°20'0 0.0
2017-May-15 20:30N 34°32' E 135°20'0 0.0
2017-May-15 20:00N 34°32' E 135°20'0 0.0
2017-May-15 19:24N 34°32' E 135°20'0 0.0
2017-May-15 18:42N 34°32' E 135°20'0 0.0
2017-May-15 18:24N 34°32' E 135°20'0 0.0
2017-May-15 18:00N 34°32' E 135°20'0 0.0
2017-May-15 17:30N 34°32' E 135°20'0 0.0
2017-May-15 17:00N 34°32' E 135°20'0 0.0
2017-May-15 16:24N 34°32' E 135°20'0 0.0
2017-May-15 16:00N 34°32' E 135°20'0 0.0
2017-May-15 15:30N 34°32' E 135°20'0 0.0
2017-May-15 15:00N 34°32' E 135°20'0 0.0
2017-May-15 14:30N 34°32' E 135°20'0 0.1
2017-May-15 14:00N 34°32' E 135°20'0 0.0
2017-May-15 13:24N 34°32' E 135°20'0 0.0
2017-May-15 13:00N 34°32' E 135°20'0 0.0
2017-May-15 12:30N 34°32' E 135°20'0 0.0
2017-May-15 12:00N 34°32' E 135°20'0 0.0
2017-May-15 11:30N 34°32' E 135°20'0 0.0
2017-May-15 10:54N 34°32' E 135°20'0 0.0
2017-May-15 10:30N 34°32' E 135°20'0 0.0
2017-May-15 10:00N 34°32' E 135°20'0 0.0
2017-May-15 09:18N 34°32' E 135°20'0 0.0
2017-May-15 08:42N 34°32' E 135°20'0 0.0
2017-May-15 08:30N 34°32' E 135°20'0 0.0
2017-May-15 08:00N 34°32' E 135°20'0 0.0
2017-May-15 07:24N 34°32' E 135°20'0 0.0
2017-May-15 06:54N 34°32' E 135°20'0 0.0
2017-May-15 06:24N 34°32' E 135°20'0 0.0
2017-May-15 05:54N 34°32' E 135°20'0 0.0
2017-May-15 05:30N 34°32' E 135°20'0 0.1
2017-May-15 04:36N 34°32' E 135°20'0 0.5
2017-May-15 04:30N 34°32' E 135°20'5 9.8
2017-May-15 04:00N 34°29' E 135°15'712.8
2017-May-15 03:25N 34°24' E 135°09'1012.5
2017-May-15 02:36N 34°15' E 135°03'112.3
2017-May-15 02:30N 34°14' E 135°03'612.6
2017-May-15 02:00N 34°08' E 135°07'2 0.8
2017-May-15 00:13N 34°07' E 135°07'0 0.1
2017-May-14 14:34N 34°07' E 135°08'0 0.0
2017-May-14 11:13N 34°07' E 135°08'0 0.1
2017-May-14 06:21N 34°07' E 135°07'0 1.1
2017-May-14 05:55N 34°08' E 135°07'0 0.1
2017-May-14 05:09N 34°08' E 135°07'0 0.0
2017-May-14 03:27N 34°08' E 135°07'0 0.0
2017-May-14 02:00N 34°08' E 135°07'0 0.0
2017-May-14 01:21N 34°08' E 135°07'0 0.0
2017-May-14 01:00N 34°08' E 135°07'0 0.0
2017-May-14 00:30N 34°08' E 135°07'0 0.0
2017-May-14 00:00N 34°08' E 135°07'0 0.0
2017-May-13 23:30N 34°08' E 135°07'0 0.0
2017-May-13 23:00N 34°08' E 135°07'0 0.0
2017-May-13 22:30N 34°08' E 135°07'0 0.0
2017-May-13 22:00N 34°08' E 135°07'0 0.0
2017-May-13 21:30N 34°08' E 135°07'0 0.0
2017-May-13 21:00N 34°08' E 135°07'0 0.0
2017-May-13 20:30N 34°08' E 135°07'0 0.0
2017-May-13 20:00N 34°08' E 135°07'0 0.0
2017-May-13 19:30N 34°08' E 135°07'0 0.0
2017-May-13 19:00N 34°08' E 135°07'0 0.0
2017-May-13 18:30N 34°08' E 135°07'0 0.0
2017-May-13 17:57N 34°08' E 135°07'0 0.0
2017-May-13 17:27N 34°08' E 135°07'0 0.0
2017-May-13 17:00N 34°08' E 135°07'0 0.0
2017-May-13 16:30N 34°08' E 135°07'0 0.0
2017-May-13 16:00N 34°08' E 135°07'0 0.0
2017-May-13 15:30N 34°08' E 135°07'0 0.0
2017-May-13 15:00N 34°08' E 135°07'0 0.1
2017-May-13 14:30N 34°08' E 135°07'0 0.0
2017-May-13 13:30N 34°08' E 135°07'0 0.0
2017-May-13 12:54N 34°08' E 135°07'0 0.0
2017-May-13 11:21N 34°08' E 135°07'0 0.1
2017-May-13 10:57N 34°08' E 135°07'0 0.1
2017-May-13 10:21N 34°08' E 135°07'0 0.2
2017-May-13 08:41N 34°08' E 135°07'1 1.6
2017-May-13 08:17N 34°07' E 135°08'0 0.1
2017-May-13 07:59N 34°07' E 135°08'3 6.8
2017-May-13 07:30N 34°10' E 135°06'  
Track history (hours):
 
Tides and Currents Weather Stations Pressure Air Temp Water Temp Dewpoint Dewpoint Depression Visibility Wind Speed Wind Dir Waves Ship Positions

Hakuryoumaru No.15

Last reported at 2017-May-23 07:05 UTC. Time now 2017-May-26 10:56 UTC.
Position N 35°00' E 139°27'.

Length 80 m; draft 5.2 m.

Type: Tanker. MMSI: 431000243.

Date/timePositionNaut miles runAvg speedWind from/ knotsBaromVisibWave heightAir tempDewpointWater temp
2017-May-23 07:05N 35°00' E 139°27'111.2
2017-May-23 06:59N 35°01' E 139°28'511.0
2017-May-23 06:30N 35°03' E 139°34'611.5
2017-May-23 06:00N 35°07' E 139°40'611.6
2017-May-23 05:30N 35°11' E 139°45'510.7
2017-May-23 05:00N 35°16' E 139°46'510.9
2017-May-23 04:30N 35°21' E 139°42'510.7
2017-May-23 04:00N 35°26' E 139°45'5 9.6
2017-May-23 03:30N 35°30' E 139°47'0 0.1
2017-May-23 00:10N 35°31' E 139°46'0 1.3
2017-May-23 00:00N 35°30' E 139°47'2 3.9
2017-May-22 23:30N 35°29' E 139°48'0 0.0
2017-May-22 23:00N 35°29' E 139°48'0 0.0
2017-May-22 22:30N 35°29' E 139°48'0 0.0
2017-May-22 21:59N 35°29' E 139°48'0 0.0
2017-May-22 21:30N 35°29' E 139°48'0 0.0
2017-May-22 21:01N 35°29' E 139°48'0 0.0
2017-May-22 20:30N 35°29' E 139°48'0 0.0
2017-May-22 19:58N 35°29' E 139°48'0 0.1
2017-May-22 19:31N 35°29' E 139°48'0 0.0
2017-May-22 19:00N 35°29' E 139°48'0 0.0
2017-May-22 18:30N 35°29' E 139°48'0 0.0
2017-May-22 18:00N 35°29' E 139°48'0 0.0
2017-May-22 17:30N 35°29' E 139°48'2 4.0
2017-May-22 17:00N 35°27' E 139°48'713.5
2017-May-22 16:30N 35°21' E 139°45'612.5
2017-May-22 16:00N 35°15' E 139°47'713.7
2017-May-22 15:30N 35°08' E 139°45'612.8
2017-May-22 15:00N 35°03' E 139°40'  
2017-May-19 18:21N 34°08' E 134°60'412.7
2017-May-19 18:00N 34°13' E 134°59'711.6
2017-May-19 17:25N 34°19' E 134°59'512.3
2017-May-19 16:58N 34°25' E 135°00'612.4
2017-May-19 16:29N 34°31' E 135°02'511.2
2017-May-19 16:01N 34°36' E 135°03'  
2017-May-16 08:56N 34°37' E 134°58'4 9.0
2017-May-16 08:30N 34°36' E 135°03'510.4
2017-May-16 08:00N 34°35' E 135°09'612.1
2017-May-16 07:29N 34°34' E 135°16'612.4
2017-May-16 06:59N 34°33' E 135°24'2 0.7
2017-May-16 04:30N 34°33' E 135°26'0 0.6
2017-May-16 04:00N 34°33' E 135°26'3 5.6
2017-May-16 03:28N 34°33' E 135°22'2 3.9
2017-May-16 03:00N 34°32' E 135°20'0 0.0
2017-May-16 01:48N 34°32' E 135°20'0 0.0
2017-May-16 01:12N 34°32' E 135°20'0 0.0
2017-May-15 23:00N 34°32' E 135°20'0 0.0
2017-May-15 21:30N 34°32' E 135°20'0 0.0
2017-May-15 20:48N 34°32' E 135°20'0 0.0
2017-May-15 20:30N 34°32' E 135°20'0 0.0
2017-May-15 20:00N 34°32' E 135°20'0 0.0
2017-May-15 19:24N 34°32' E 135°20'0 0.0
2017-May-15 18:42N 34°32' E 135°20'0 0.0
2017-May-15 18:24N 34°32' E 135°20'0 0.0
2017-May-15 18:00N 34°32' E 135°20'0 0.0
2017-May-15 17:30N 34°32' E 135°20'0 0.0
2017-May-15 17:00N 34°32' E 135°20'0 0.0
2017-May-15 16:24N 34°32' E 135°20'0 0.0
2017-May-15 16:00N 34°32' E 135°20'0 0.0
2017-May-15 15:30N 34°32' E 135°20'0 0.0
2017-May-15 15:00N 34°32' E 135°20'0 0.0
2017-May-15 14:30N 34°32' E 135°20'0 0.1
2017-May-15 14:00N 34°32' E 135°20'0 0.0
2017-May-15 13:24N 34°32' E 135°20'0 0.0
2017-May-15 13:00N 34°32' E 135°20'0 0.0
2017-May-15 12:30N 34°32' E 135°20'0 0.0
2017-May-15 12:00N 34°32' E 135°20'0 0.0
2017-May-15 11:30N 34°32' E 135°20'0 0.0
2017-May-15 10:54N 34°32' E 135°20'0 0.0
2017-May-15 10:30N 34°32' E 135°20'0 0.0
2017-May-15 10:00N 34°32' E 135°20'0 0.0
2017-May-15 09:18N 34°32' E 135°20'0 0.0
2017-May-15 08:42N 34°32' E 135°20'0 0.0
2017-May-15 08:30N 34°32' E 135°20'0 0.0
2017-May-15 08:00N 34°32' E 135°20'0 0.0
2017-May-15 07:24N 34°32' E 135°20'0 0.0
2017-May-15 06:54N 34°32' E 135°20'0 0.0
2017-May-15 06:24N 34°32' E 135°20'0 0.0
2017-May-15 05:54N 34°32' E 135°20'0 0.0
2017-May-15 05:30N 34°32' E 135°20'0 0.1
2017-May-15 04:36N 34°32' E 135°20'0 0.5
2017-May-15 04:30N 34°32' E 135°20'5 9.8
2017-May-15 04:00N 34°29' E 135°15'712.8
2017-May-15 03:25N 34°24' E 135°09'1012.5
2017-May-15 02:36N 34°15' E 135°03'112.3
2017-May-15 02:30N 34°14' E 135°03'612.6
2017-May-15 02:00N 34°08' E 135°07'2 0.8
2017-May-15 00:13N 34°07' E 135°07'0 0.1
2017-May-14 14:34N 34°07' E 135°08'0 0.0
2017-May-14 11:13N 34°07' E 135°08'0 0.1
2017-May-14 06:21N 34°07' E 135°07'0 1.1
2017-May-14 05:55N 34°08' E 135°07'0 0.1
2017-May-14 05:09N 34°08' E 135°07'0 0.0
2017-May-14 03:27N 34°08' E 135°07'0 0.0
2017-May-14 02:00N 34°08' E 135°07'0 0.0
2017-May-14 01:21N 34°08' E 135°07'0 0.0
2017-May-14 01:00N 34°08' E 135°07'0 0.0
2017-May-14 00:30N 34°08' E 135°07'0 0.0
2017-May-14 00:00N 34°08' E 135°07'0 0.0
2017-May-13 23:30N 34°08' E 135°07'0 0.0
2017-May-13 23:00N 34°08' E 135°07'0 0.0
2017-May-13 22:30N 34°08' E 135°07'0 0.0
2017-May-13 22:00N 34°08' E 135°07'0 0.0
2017-May-13 21:30N 34°08' E 135°07'0 0.0
2017-May-13 21:00N 34°08' E 135°07'0 0.0
2017-May-13 20:30N 34°08' E 135°07'0 0.0
2017-May-13 20:00N 34°08' E 135°07'0 0.0
2017-May-13 19:30N 34°08' E 135°07'0 0.0
2017-May-13 19:00N 34°08' E 135°07'0 0.0
2017-May-13 18:30N 34°08' E 135°07'0 0.0
2017-May-13 17:57N 34°08' E 135°07'0 0.0
2017-May-13 17:27N 34°08' E 135°07'0 0.0
2017-May-13 17:00N 34°08' E 135°07'0 0.0
2017-May-13 16:30N 34°08' E 135°07'0 0.0
2017-May-13 16:00N 34°08' E 135°07'0 0.0
2017-May-13 15:30N 34°08' E 135°07'0 0.0
2017-May-13 15:00N 34°08' E 135°07'0 0.1
2017-May-13 14:30N 34°08' E 135°07'0 0.0
2017-May-13 13:30N 34°08' E 135°07'0 0.0
2017-May-13 12:54N 34°08' E 135°07'0 0.0
2017-May-13 11:21N 34°08' E 135°07'0 0.1
2017-May-13 10:57N 34°08' E 135°07'0 0.1
2017-May-13 10:21N 34°08' E 135°07'0 0.2
2017-May-13 08:41N 34°08' E 135°07'1 1.6
2017-May-13 08:17N 34°07' E 135°08'0 0.1
2017-May-13 07:59N 34°07' E 135°08'3 6.8
2017-May-13 07:30N 34°10' E 135°06'  

Dump ship's entire track history